Aviation Digital Data Service (ADDS)

Output produced by METARs form (0903 UTC 24 March 2019)
found at http://www.aviationweather.gov/metar/data/
 
METAR text: UACK 240830Z 16002MPS 110V190 CAVOK 04/M00 Q1022 R20/090060 NOSIG RMK QFE742/0990
Conditions at: UACK (KOKSHETAU , KZ) observed 0830 UTC 24 March 2019
Temperature: 4.0°C (39°F)
Dewpoint: 0.0°C (32°F) [RH = 75%]
Pressure (altimeter): 30.18 inches Hg (1022.0 mb)
Winds: from the SSE (160 degrees) at 5 MPH (4 knots; 2.1 m/s)
Visibility: 6 or more miles (10+ km)
Ceiling: ceiling and visibility are OK
Clouds: unknown
Weather: no significant weather observed at this time

METAR text: UACK 240800Z 17002MPS 140V200 CAVOK 03/00 Q1022 R20/090060 NOSIG RMK QFE742/0990
Conditions at: UACK (KOKSHETAU , KZ) observed 0800 UTC 24 March 2019
Temperature: 3.0°C (37°F)
Dewpoint: 0.0°C (32°F) [RH = 81%]
Pressure (altimeter): 30.18 inches Hg (1022.0 mb)
Winds: from the S (170 degrees) at 5 MPH (4 knots; 2.1 m/s)
Visibility: 6 or more miles (10+ km)
Ceiling: ceiling and visibility are OK
Clouds: unknown
Weather: no significant weather observed at this time

METAR text: UACK 240730Z VRB01MPS CAVOK 02/01 Q1022 R20/090060 NOSIG RMK QFE742/0990
Conditions at: UACK (KOKSHETAU , KZ) observed 0730 UTC 24 March 2019
Temperature: 2.0°C (36°F)
Dewpoint: 1.0°C (34°F) [RH = 93%]
Pressure (altimeter): 30.18 inches Hg (1022.0 mb)
Winds: variable direction winds at 2 MPH (2 knots; 1.0 m/s)
Visibility: 6 or more miles (10+ km)
Ceiling: ceiling and visibility are OK
Clouds: unknown
Weather: no significant weather observed at this time

METAR text: UACK 240700Z VRB01MPS CAVOK 01/00 Q1022 R20/090060 NOSIG RMK QFE742/0990
Conditions at: UACK (KOKSHETAU , KZ) observed 0700 UTC 24 March 2019
Temperature: 1.0°C (34°F)
Dewpoint: 0.0°C (32°F) [RH = 93%]
Pressure (altimeter): 30.18 inches Hg (1022.0 mb)
Winds: variable direction winds at 2 MPH (2 knots; 1.0 m/s)
Visibility: 6 or more miles (10+ km)
Ceiling: ceiling and visibility are OK
Clouds: unknown
Weather: no significant weather observed at this time

METAR text: UACK 240630Z 31002MPS 240V020 9999 BKN005 M01/M01 Q1022 R20/090060 TEMPO 0400 FZFG VV001 RMK QBB150 QFE743/0990
Conditions at: UACK (KOKSHETAU , KZ) observed 0630 UTC 24 March 2019
Temperature: -1.0°C (30°F)
Dewpoint: -1.0°C (30°F) [RH = 100%]
Pressure (altimeter): 30.18 inches Hg (1022.0 mb)
Winds: from the NW (310 degrees) at 5 MPH (4 knots; 2.1 m/s)
Visibility: 6 or more miles (10+ km)
Ceiling: 500 feet AGL
Clouds: broken clouds at 500 feet AGL
Weather: no significant weather observed at this time

METAR text: UACK 240600Z 23002MPS 150V310 6000 OVC003 M01/M01 Q1022 R20/090060 TEMPO 0400 FZFG VV001 RMK QBB100 QFE742/0990
Conditions at: UACK (KOKSHETAU , KZ) observed 0600 UTC 24 March 2019
Temperature: -1.0°C (30°F)
Dewpoint: -1.0°C (30°F) [RH = 100%]
Pressure (altimeter): 30.18 inches Hg (1022.0 mb)
Winds: from the SW (230 degrees) at 5 MPH (4 knots; 2.1 m/s)
Visibility: 4 miles ( 6 km)
Ceiling: 300 feet AGL
Clouds: overcast cloud deck at 300 feet AGL
Weather: no significant weather observed at this time

METAR text: UACK 240530Z 19002MPS 130V270 0500 R20/0350V0800D FZFG VV001 M01/M01 Q1021 R20/090060 TEMPO 0400 FZFG VV001 RMK QBB050 QFE742/0990
Conditions at: UACK (KOKSHETAU , KZ) observed 0530 UTC 24 March 2019
Temperature: -1.0°C (30°F)
Dewpoint: -1.0°C (30°F) [RH = 100%]
Pressure (altimeter): 30.15 inches Hg (1021.0 mb)
Winds: from the S (190 degrees) at 5 MPH (4 knots; 2.1 m/s)
Visibility: 0.31 miles (0.50 km)
Ceiling: indefinite ceiling with vertical visibility of 100 feet AGL
Clouds: obscured sky
Weather: FZFG  (freezing fog)

METAR text: UACK 240500Z 23002MPS 170V270 0400 R02/0400N FZFG VV002 M02/M02 Q1021 R02/090060 TEMPO 0400 FZFG VV001 RMK QBB060 QFE742/0989
Conditions at: UACK (KOKSHETAU , KZ) observed 0500 UTC 24 March 2019
Temperature: -2.0°C (28°F)
Dewpoint: -2.0°C (28°F) [RH = 100%]
Pressure (altimeter): 30.15 inches Hg (1021.0 mb)
Winds: from the SW (230 degrees) at 5 MPH (4 knots; 2.1 m/s)
Visibility: 0.25 miles (0.40 km)
Ceiling: indefinite ceiling with vertical visibility of 200 feet AGL
Clouds: obscured sky
Weather: FZFG  (freezing fog)

METAR text: UACK 240430Z VRB01MPS 0500 R02/0500N FZFG VV002 M02/M02 Q1021 R02/090060 TEMPO 0400 FZFG VV001 RMK QBB070 QFE742/0989
Conditions at: UACK (KOKSHETAU , KZ) observed 0430 UTC 24 March 2019
Temperature: -2.0°C (28°F)
Dewpoint: -2.0°C (28°F) [RH = 100%]
Pressure (altimeter): 30.15 inches Hg (1021.0 mb)
Winds: variable direction winds at 2 MPH (2 knots; 1.0 m/s)
Visibility: 0.31 miles (0.50 km)
Ceiling: indefinite ceiling with vertical visibility of 200 feet AGL
Clouds: obscured sky
Weather: FZFG  (freezing fog)

METAR text: UACK 240400Z VRB01MPS 0600 R20/0600D FZFG VV002 M02/M02 Q1021 R20/090060 TEMPO 0400 FZFG VV001 RMK QBB070 QFE742/0990
Conditions at: UACK (KOKSHETAU , KZ) observed 0400 UTC 24 March 2019
Temperature: -2.0°C (28°F)
Dewpoint: -2.0°C (28°F) [RH = 100%]
Pressure (altimeter): 30.15 inches Hg (1021.0 mb)
Winds: variable direction winds at 2 MPH (2 knots; 1.0 m/s)
Visibility: 0.37 miles (0.60 km)
Ceiling: indefinite ceiling with vertical visibility of 200 feet AGL
Clouds: obscured sky
Weather: FZFG  (freezing fog)

METAR text: UACK 240330Z 01002MPS 340V050 0550 R20/0450V1100U FZFG VV002 M02/M02 Q1021 R20/090060 NOSIG RMK QBB070 QFE742/0990
Conditions at: UACK (KOKSHETAU , KZ) observed 0330 UTC 24 March 2019
Temperature: -2.0°C (28°F)
Dewpoint: -2.0°C (28°F) [RH = 100%]
Pressure (altimeter): 30.15 inches Hg (1021.0 mb)
Winds: from the N (10 degrees) at 5 MPH (4 knots; 2.1 m/s)
Visibility: 0.34 miles (0.55 km)
Ceiling: indefinite ceiling with vertical visibility of 200 feet AGL
Clouds: obscured sky
Weather: FZFG  (freezing fog)

METAR text: UACK 240300Z VRB01MPS 1800 BR OVC002 M02/M02 Q1021 R20/090060 NOSIG RMK QBB060 QFE742/0989
Conditions at: UACK (KOKSHETAU , KZ) observed 0300 UTC 24 March 2019
Temperature: -2.0°C (28°F)
Dewpoint: -2.0°C (28°F) [RH = 100%]
Pressure (altimeter): 30.15 inches Hg (1021.0 mb)
Winds: variable direction winds at 2 MPH (2 knots; 1.0 m/s)
Visibility: 1.12 miles (1.80 km)
Ceiling: 200 feet AGL
Clouds: overcast cloud deck at 200 feet AGL
Weather: BR  (mist)

METAR text: UACK 240230Z VRB01MPS 2100 BR OVC002 M02/M02 Q1021 R20/090060 NOSIG RMK QBB060 QFE742/0989
Conditions at: UACK (KOKSHETAU , KZ) observed 0230 UTC 24 March 2019
Temperature: -2.0°C (28°F)
Dewpoint: -2.0°C (28°F) [RH = 100%]
Pressure (altimeter): 30.15 inches Hg (1021.0 mb)
Winds: variable direction winds at 2 MPH (2 knots; 1.0 m/s)
Visibility: 1.30 miles (2.09 km)
Ceiling: 200 feet AGL
Clouds: overcast cloud deck at 200 feet AGL
Weather: BR  (mist)

METAR text: UACK 240200Z 34002MPS 310V030 0650 R20/0650N FZFG VV001 M02/M02 Q1021 NOSIG RMK QBB050 QFE742/0989
Conditions at: UACK (KOKSHETAU , KZ) observed 0200 UTC 24 March 2019
Temperature: -2.0°C (28°F)
Dewpoint: -2.0°C (28°F) [RH = 100%]
Pressure (altimeter): 30.15 inches Hg (1021.0 mb)
Winds: from the NNW (340 degrees) at 5 MPH (4 knots; 2.1 m/s)
Visibility: 0.40 miles (0.64 km)
Ceiling: indefinite ceiling with vertical visibility of 100 feet AGL
Clouds: obscured sky
Weather: FZFG  (freezing fog)

METAR text: UACK 231330Z 04003MPS CAVOK M01/M02 Q1019 R20/090060 NOSIG RMK QFE740/0987
Conditions at: UACK (KOKSHETAU , KZ) observed 1330 UTC 23 March 2019
Temperature: -1.0°C (30°F)
Dewpoint: -2.0°C (28°F) [RH = 93%]
Pressure (altimeter): 30.09 inches Hg (1019.0 mb)
Winds: from the NE (40 degrees) at 7 MPH (6 knots; 3.1 m/s)
Visibility: 6 or more miles (10+ km)
Ceiling: ceiling and visibility are OK
Clouds: unknown
Weather: no significant weather observed at this time

METAR text: UACK 231300Z 04002MPS CAVOK 00/M01 Q1018 R20/090060 NOSIG RMK QFE740/0987
Conditions at: UACK (KOKSHETAU , KZ) observed 1300 UTC 23 March 2019
Temperature: 0.0°C (32°F)
Dewpoint: -1.0°C (30°F) [RH = 93%]
Pressure (altimeter): 30.06 inches Hg (1018.0 mb)
Winds: from the NE (40 degrees) at 5 MPH (4 knots; 2.1 m/s)
Visibility: 6 or more miles (10+ km)
Ceiling: ceiling and visibility are OK
Clouds: unknown
Weather: no significant weather observed at this time

METAR text: UACK 231230Z 04003MPS CAVOK 01/M01 Q1018 R20/090060 NOSIG RMK QFE740/0987
Conditions at: UACK (KOKSHETAU , KZ) observed 1230 UTC 23 March 2019
Temperature: 1.0°C (34°F)
Dewpoint: -1.0°C (30°F) [RH = 86%]
Pressure (altimeter): 30.06 inches Hg (1018.0 mb)
Winds: from the NE (40 degrees) at 7 MPH (6 knots; 3.1 m/s)
Visibility: 6 or more miles (10+ km)
Ceiling: ceiling and visibility are OK
Clouds: unknown
Weather: no significant weather observed at this time

METAR text: UACK 231200Z 16002MPS CAVOK 03/M01 Q1018 R20/090060 NOSIG RMK QFE740/0987
Conditions at: UACK (KOKSHETAU , KZ) observed 1200 UTC 23 March 2019
Temperature: 3.0°C (37°F)
Dewpoint: -1.0°C (30°F) [RH = 75%]
Pressure (altimeter): 30.06 inches Hg (1018.0 mb)
Winds: from the SSE (160 degrees) at 5 MPH (4 knots; 2.1 m/s)
Visibility: 6 or more miles (10+ km)
Ceiling: ceiling and visibility are OK
Clouds: unknown
Weather: no significant weather observed at this time

METAR text: UACK 231130Z 16002MPS CAVOK 03/M01 Q1018 R20/090060 NOSIG RMK QFE740/0986
Conditions at: UACK (KOKSHETAU , KZ) observed 1130 UTC 23 March 2019
Temperature: 3.0°C (37°F)
Dewpoint: -1.0°C (30°F) [RH = 75%]
Pressure (altimeter): 30.06 inches Hg (1018.0 mb)
Winds: from the SSE (160 degrees) at 5 MPH (4 knots; 2.1 m/s)
Visibility: 6 or more miles (10+ km)
Ceiling: ceiling and visibility are OK
Clouds: unknown
Weather: no significant weather observed at this time

METAR text: UACK 231100Z 18003MPS CAVOK 03/M01 Q1018 R20/090060 NOSIG RMK QFE740/0987
Conditions at: UACK (KOKSHETAU , KZ) observed 1100 UTC 23 March 2019
Temperature: 3.0°C (37°F)
Dewpoint: -1.0°C (30°F) [RH = 75%]
Pressure (altimeter): 30.06 inches Hg (1018.0 mb)
Winds: from the S (180 degrees) at 7 MPH (6 knots; 3.1 m/s)
Visibility: 6 or more miles (10+ km)
Ceiling: ceiling and visibility are OK
Clouds: unknown
Weather: no significant weather observed at this time

METAR text: UACK 231030Z 08002MPS 040V110 CAVOK 03/M02 Q1018 R20/090060 NOSIG RMK QFE740/0986
Conditions at: UACK (KOKSHETAU , KZ) observed 1030 UTC 23 March 2019
Temperature: 3.0°C (37°F)
Dewpoint: -2.0°C (28°F) [RH = 70%]
Pressure (altimeter): 30.06 inches Hg (1018.0 mb)
Winds: from the E (80 degrees) at 5 MPH (4 knots; 2.1 m/s)
Visibility: 6 or more miles (10+ km)
Ceiling: ceiling and visibility are OK
Clouds: unknown
Weather: no significant weather observed at this time

METAR text: UACK 231000Z 17002MPS 100V220 CAVOK 03/M02 Q1018 R20/090060 NOSIG RMK QFE740/0986
Conditions at: UACK (KOKSHETAU , KZ) observed 1000 UTC 23 March 2019
Temperature: 3.0°C (37°F)
Dewpoint: -2.0°C (28°F) [RH = 70%]
Pressure (altimeter): 30.06 inches Hg (1018.0 mb)
Winds: from the S (170 degrees) at 5 MPH (4 knots; 2.1 m/s)
Visibility: 6 or more miles (10+ km)
Ceiling: ceiling and visibility are OK
Clouds: unknown
Weather: no significant weather observed at this time

METAR text: UACK 230930Z 13002MPS 090V170 9999 FEW013 02/M02 Q1018 R20/090060 NOSIG RMK QFE740/0986
Conditions at: UACK (KOKSHETAU , KZ) observed 0930 UTC 23 March 2019
Temperature: 2.0°C (36°F)
Dewpoint: -2.0°C (28°F) [RH = 75%]
Pressure (altimeter): 30.06 inches Hg (1018.0 mb)
Winds: from the SE (130 degrees) at 5 MPH (4 knots; 2.1 m/s)
Visibility: 6 or more miles (10+ km)
Ceiling: at least 12,000 feet AGL
Clouds: few clouds at 1300 feet AGL
Weather: no significant weather observed at this time

METAR text: UACK 230900Z 21002MPS 160V270 9999 SCT013 02/M02 Q1018 R20/090060 NOSIG RMK QFE740/0986
Conditions at: UACK (KOKSHETAU , KZ) observed 0900 UTC 23 March 2019
Temperature: 2.0°C (36°F)
Dewpoint: -2.0°C (28°F) [RH = 75%]
Pressure (altimeter): 30.06 inches Hg (1018.0 mb)
Winds: from the SSW (210 degrees) at 5 MPH (4 knots; 2.1 m/s)
Visibility: 6 or more miles (10+ km)
Ceiling: at least 12,000 feet AGL
Clouds: scattered clouds at 1300 feet AGL
Weather: no significant weather observed at this time

METAR text: UACK 230830Z 14002MPS 110V170 9999 SCT015 BKN250 02/M02 Q1018 R20/190060 NOSIG RMK QFE740/0986
Conditions at: UACK (KOKSHETAU , KZ) observed 0830 UTC 23 March 2019
Temperature: 2.0°C (36°F)
Dewpoint: -2.0°C (28°F) [RH = 75%]
Pressure (altimeter): 30.06 inches Hg (1018.0 mb)
Winds: from the SE (140 degrees) at 5 MPH (4 knots; 2.1 m/s)
Visibility: 6 or more miles (10+ km)
Ceiling: 25000 feet AGL
Clouds: scattered clouds at 1500 feet AGL
broken clouds at 25000 feet AGL
Weather: no significant weather observed at this time

METAR text: UACK 230800Z 14002MPS 080V180 9999 SCT013 OVC250 01/M02 Q1018 R20/190060 NOSIG RMK QFE740/0986
Conditions at: UACK (KOKSHETAU , KZ) observed 0800 UTC 23 March 2019
Temperature: 1.0°C (34°F)
Dewpoint: -2.0°C (28°F) [RH = 80%]
Pressure (altimeter): 30.06 inches Hg (1018.0 mb)
Winds: from the SE (140 degrees) at 5 MPH (4 knots; 2.1 m/s)
Visibility: 6 or more miles (10+ km)
Ceiling: 25000 feet AGL
Clouds: scattered clouds at 1300 feet AGL
overcast cloud deck at 25000 feet AGL
Weather: no significant weather observed at this time

METAR text: UACK 230730Z VRB01MPS 9999 BKN012 02/M02 Q1018 R20/190060 NOSIG RMK QFE740/0987
Conditions at: UACK (KOKSHETAU , KZ) observed 0730 UTC 23 March 2019
Temperature: 2.0°C (36°F)
Dewpoint: -2.0°C (28°F) [RH = 75%]
Pressure (altimeter): 30.06 inches Hg (1018.0 mb)
Winds: variable direction winds at 2 MPH (2 knots; 1.0 m/s)
Visibility: 6 or more miles (10+ km)
Ceiling: 1200 feet AGL
Clouds: broken clouds at 1200 feet AGL
Weather: no significant weather observed at this time

METAR text: UACK 230700Z 03002MPS 340V070 9999 BKN010 00/M02 Q1018 R20/190060 NOSIG RMK QFE740/0986
Conditions at: UACK (KOKSHETAU , KZ) observed 0700 UTC 23 March 2019
Temperature: 0.0°C (32°F)
Dewpoint: -2.0°C (28°F) [RH = 86%]
Pressure (altimeter): 30.06 inches Hg (1018.0 mb)
Winds: from the NNE (30 degrees) at 5 MPH (4 knots; 2.1 m/s)
Visibility: 6 or more miles (10+ km)
Ceiling: 1000 feet AGL
Clouds: broken clouds at 1000 feet AGL
Weather: no significant weather observed at this time

METAR text: UACK 230630Z VRB01MPS 9999 BKN010 01/M02 Q1018 R20/190060 NOSIG RMK QFE740/0987
Conditions at: UACK (KOKSHETAU , KZ) observed 0630 UTC 23 March 2019
Temperature: 1.0°C (34°F)
Dewpoint: -2.0°C (28°F) [RH = 80%]
Pressure (altimeter): 30.06 inches Hg (1018.0 mb)
Winds: variable direction winds at 2 MPH (2 knots; 1.0 m/s)
Visibility: 6 or more miles (10+ km)
Ceiling: 1000 feet AGL
Clouds: broken clouds at 1000 feet AGL
Weather: no significant weather observed at this time

METAR text: UACK 230600Z VRB01MPS 9999 OVC009 M00/M02 Q1018 R20/190060 NOSIG RMK QFE740/0987
Conditions at: UACK (KOKSHETAU , KZ) observed 0600 UTC 23 March 2019
Temperature: 0.0°C (32°F)
Dewpoint: -2.0°C (28°F) [RH = 86%]
Pressure (altimeter): 30.06 inches Hg (1018.0 mb)
Winds: variable direction winds at 2 MPH (2 knots; 1.0 m/s)
Visibility: 6 or more miles (10+ km)
Ceiling: 900 feet AGL
Clouds: overcast cloud deck at 900 feet AGL
Weather: no significant weather observed at this time

METAR text: UACK 230530Z VRB01MPS 9999 OVC008 M00/M02 Q1018 R20/190060 NOSIG RMK QFE740/0987
Conditions at: UACK (KOKSHETAU , KZ) observed 0530 UTC 23 March 2019
Temperature: 0.0°C (32°F)
Dewpoint: -2.0°C (28°F) [RH = 86%]
Pressure (altimeter): 30.06 inches Hg (1018.0 mb)
Winds: variable direction winds at 2 MPH (2 knots; 1.0 m/s)
Visibility: 6 or more miles (10+ km)
Ceiling: 800 feet AGL
Clouds: overcast cloud deck at 800 feet AGL
Weather: no significant weather observed at this time

METAR text: UACK 230500Z VRB01MPS 9999 OVC007 M01/M02 Q1018 R20/190060 NOSIG RMK QFE740/0986
Conditions at: UACK (KOKSHETAU , KZ) observed 0500 UTC 23 March 2019
Temperature: -1.0°C (30°F)
Dewpoint: -2.0°C (28°F) [RH = 93%]
Pressure (altimeter): 30.06 inches Hg (1018.0 mb)
Winds: variable direction winds at 2 MPH (2 knots; 1.0 m/s)
Visibility: 6 or more miles (10+ km)
Ceiling: 700 feet AGL
Clouds: overcast cloud deck at 700 feet AGL
Weather: no significant weather observed at this time

METAR text: UACK 230430Z VRB01MPS 9999 OVC005 M01/M02 Q1018 R20/190060 NOSIG RMK QBB170 QFE740/0986
Conditions at: UACK (KOKSHETAU , KZ) observed 0430 UTC 23 March 2019
Temperature: -1.0°C (30°F)
Dewpoint: -2.0°C (28°F) [RH = 93%]
Pressure (altimeter): 30.06 inches Hg (1018.0 mb)
Winds: variable direction winds at 2 MPH (2 knots; 1.0 m/s)
Visibility: 6 or more miles (10+ km)
Ceiling: 500 feet AGL
Clouds: overcast cloud deck at 500 feet AGL
Weather: no significant weather observed at this time

METAR text: UACK 230400Z VRB01MPS 9999 OVC004 M01/M02 Q1018 R20/190060 NOSIG RMK QBB140 QFE740/0986
Conditions at: UACK (KOKSHETAU , KZ) observed 0400 UTC 23 March 2019
Temperature: -1.0°C (30°F)
Dewpoint: -2.0°C (28°F) [RH = 93%]
Pressure (altimeter): 30.06 inches Hg (1018.0 mb)
Winds: variable direction winds at 2 MPH (2 knots; 1.0 m/s)
Visibility: 6 or more miles (10+ km)
Ceiling: 400 feet AGL
Clouds: overcast cloud deck at 400 feet AGL
Weather: no significant weather observed at this time

METAR text: UACK 230330Z 26002MPS 170V330 9999 OVC005 M01/M01 Q1018 NOSIG RMK QBB160 QFE739/0986
Conditions at: UACK (KOKSHETAU , KZ) observed 0330 UTC 23 March 2019
Temperature: -1.0°C (30°F)
Dewpoint: -1.0°C (30°F) [RH = 100%]
Pressure (altimeter): 30.06 inches Hg (1018.0 mb)
Winds: from the W (260 degrees) at 5 MPH (4 knots; 2.1 m/s)
Visibility: 6 or more miles (10+ km)
Ceiling: 500 feet AGL
Clouds: overcast cloud deck at 500 feet AGL
Weather: no significant weather observed at this time

METAR text: UACK 230300Z 30002MPS 260V350 9999 OVC004 M01/M01 Q1017 NOSIG RMK QBB120 QFE739/0986
Conditions at: UACK (KOKSHETAU , KZ) observed 0300 UTC 23 March 2019
Temperature: -1.0°C (30°F)
Dewpoint: -1.0°C (30°F) [RH = 100%]
Pressure (altimeter): 30.03 inches Hg (1017.0 mb)
Winds: from the WNW (300 degrees) at 5 MPH (4 knots; 2.1 m/s)
Visibility: 6 or more miles (10+ km)
Ceiling: 400 feet AGL
Clouds: overcast cloud deck at 400 feet AGL
Weather: no significant weather observed at this time

METAR text: UACK 230230Z 31002MPS 270V010 9999 OVC004 M01/M01 Q1017 NOSIG RMK QBB120 QFE739/0986
Conditions at: UACK (KOKSHETAU , KZ) observed 0230 UTC 23 March 2019
Temperature: -1.0°C (30°F)
Dewpoint: -1.0°C (30°F) [RH = 100%]
Pressure (altimeter): 30.03 inches Hg (1017.0 mb)
Winds: from the NW (310 degrees) at 5 MPH (4 knots; 2.1 m/s)
Visibility: 6 or more miles (10+ km)
Ceiling: 400 feet AGL
Clouds: overcast cloud deck at 400 feet AGL
Weather: no significant weather observed at this time

METAR text: UACK 230200Z 32002MPS 260V020 9000 OVC002 M01/M01 Q1017 NOSIG RMK QBB080 QFE739/0986
Conditions at: UACK (KOKSHETAU , KZ) observed 0200 UTC 23 March 2019
Temperature: -1.0°C (30°F)
Dewpoint: -1.0°C (30°F) [RH = 100%]
Pressure (altimeter): 30.03 inches Hg (1017.0 mb)
Winds: from the NW (320 degrees) at 5 MPH (4 knots; 2.1 m/s)
Visibility: 6 miles ( 9 km)
Ceiling: 200 feet AGL
Clouds: overcast cloud deck at 200 feet AGL
Weather: no significant weather observed at this time

METAR text: UACK 230130Z 32002MPS 300V360 5000 BR OVC003 M01/M01 Q1017 NOSIG RMK QBB090 QFE739/0986
Conditions at: UACK (KOKSHETAU , KZ) observed 0130 UTC 23 March 2019
Temperature: -1.0°C (30°F)
Dewpoint: -1.0°C (30°F) [RH = 100%]
Pressure (altimeter): 30.03 inches Hg (1017.0 mb)
Winds: from the NW (320 degrees) at 5 MPH (4 knots; 2.1 m/s)
Visibility: 3 miles ( 5 km)
Ceiling: 300 feet AGL
Clouds: overcast cloud deck at 300 feet AGL
Weather: BR  (mist)

Forecast for: UACK (KOKSHETAU , KZ)
Text: TAF UACK 240800Z 2409/2418 VRB02MPS 9999 SCT033 BKN100
Forecast period: 0900 to 1800 UTC 24 March 2019
Forecast type: FROM: standard forecast or significant change
Winds: variable direction winds at 5 MPH (4 knots; 2.1 m/s)
Visibility: 6 or more miles 10+ km)
Ceiling: 10000 feet AGL
Clouds: scattered clouds at 3300 feet AGL
broken clouds at 10000 feet AGL
Weather: no significant weather forecast for this period
Text: TEMPO 2409/2415 SCT025
Forecast period: 0900 to 1500 UTC 24 March 2019
Forecast type: TEMPORARY: The following changes expected for less than half the time period
Visibility: missing
Ceiling: at least 12,000 feet AGL
Clouds: scattered clouds at 2500 feet AGL
Weather: no significant weather forecast for this period